Time;durP1;ratioP1;P1;durP2;ratioP2;P2;SDS_P1;SDS_P2;PMS_P1;PMS_P2;Temp;Humidity;BMP_temperature;BMP_pressure;BME280_temperature;BME280_humidity;BME280_pressure;Samples;Min_cycle;Max_cycle;Signal;HPM_P1;HPM_P2
2021/06/25 00:00:18;;;;;;;5.33;4.93;;;19.30;99.90;;;;;;5015196;28;20454;-92
2021/06/25 00:02:44;;;;;;;5.43;5.03;;;19.30;99.90;;;;;;5014606;28;20532;-85
2021/06/25 00:05:11;;;;;;;5.43;5.03;;;19.30;99.90;;;;;;5014102;28;20993;-85
2021/06/25 00:07:38;;;;;;;6.40;5.33;;;19.20;99.90;;;;;;5014042;28;20965;-88
2021/06/25 00:10:10;;;;;;;5.80;5.30;;;19.10;99.90;;;;;;5014257;28;20493;-88
2021/06/25 00:12:37;;;;;;;5.40;5.00;;;19.10;99.90;;;;;;5000053;28;20800;-86
2021/06/25 00:15:07;;;;;;;7.00;6.30;;;19.10;99.90;;;;;;4994307;28;20866;-86
2021/06/25 00:17:33;;;;;;;5.53;4.87;;;19.10;99.90;;;;;;5010471;28;20513;-85
2021/06/25 00:20:00;;;;;;;5.97;5.37;;;19.10;99.90;;;;;;5013563;28;20446;-85
2021/06/25 00:22:27;;;;;;;5.57;5.07;;;19.00;99.90;;;;;;5013763;28;20461;-85
2021/06/25 00:24:55;;;;;;;6.30;5.70;;;19.00;99.90;;;;;;5013461;28;20956;-87
2021/06/25 00:27:23;;;;;;;6.57;6.00;;;19.00;99.90;;;;;;5013244;28;20493;-86
2021/06/25 00:29:55;;;;;;;6.40;5.80;;;19.00;99.90;;;;;;5013332;28;20458;-86
2021/06/25 00:32:22;;;;;;;6.30;5.70;;;19.00;99.90;;;;;;5013690;28;20486;-86
2021/06/25 00:34:49;;;;;;;7.53;5.43;;;18.90;99.90;;;;;;5014074;28;20532;-86
2021/06/25 00:37:15;;;;;;;6.17;5.67;;;18.90;99.90;;;;;;5013910;28;20536;-86
2021/06/25 00:39:42;;;;;;;6.37;5.87;;;18.90;99.90;;;;;;5013523;28;20482;-86
2021/06/25 00:42:09;;;;;;;5.07;4.67;;;18.90;99.90;;;;;;5013913;28;20505;-86
2021/06/25 00:44:40;;;;;;;5.50;5.10;;;18.90;99.90;;;;;;5013300;28;21015;-91
2021/06/25 00:47:08;;;;;;;6.13;5.63;;;18.90;99.90;;;;;;5013874;28;20539;-92
2021/06/25 00:49:35;;;;;;;6.03;5.43;;;18.90;99.90;;;;;;5013956;28;20493;-88
2021/06/25 00:52:02;;;;;;;6.40;5.70;;;18.90;99.90;;;;;;5013580;28;20516;-87
2021/06/25 00:54:28;;;;;;;6.73;6.07;;;18.80;99.90;;;;;;5013371;28;20996;-87
2021/06/25 00:56:56;;;;;;;6.80;5.40;;;18.90;99.90;;;;;;5013929;28;20450;-87
2021/06/25 00:59:23;;;;;;;6.30;5.80;;;18.80;99.90;;;;;;5013577;28;20540;-88
2021/06/25 01:01:51;;;;;;;7.50;5.83;;;18.80;99.90;;;;;;5013925;28;20442;-87
2021/06/25 01:04:17;;;;;;;5.83;5.27;;;18.80;99.90;;;;;;5013754;28;20482;-87
2021/06/25 01:06:44;;;;;;;6.40;5.77;;;18.80;99.90;;;;;;5013727;28;20514;-87
2021/06/25 01:09:11;;;;;;;5.80;5.37;;;18.70;99.90;;;;;;5013505;28;20941;-87
2021/06/25 01:11:38;;;;;;;7.03;6.33;;;18.80;99.90;;;;;;5007821;28;20493;-88
2021/06/25 01:14:05;;;;;;;6.87;6.30;;;18.80;99.90;;;;;;4993324;28;20811;-87
2021/06/25 01:16:32;;;;;;;6.80;6.10;;;18.70;99.90;;;;;;4992869;28;20478;-87
2021/06/25 01:19:00;;;;;;;6.67;6.17;;;18.80;99.90;;;;;;4993270;28;20454;-87
2021/06/25 01:21:28;;;;;;;6.90;6.30;;;18.80;99.90;;;;;;4993297;28;20938;-87
2021/06/25 01:23:55;;;;;;;7.70;6.90;;;18.70;99.90;;;;;;4993022;28;20858;-87
2021/06/25 01:26:21;;;;;;;6.87;6.27;;;18.70;99.90;;;;;;4993006;28;20816;-84
2021/06/25 01:28:48;;;;;;;6.97;6.27;;;18.70;99.90;;;;;;4993326;28;20841;-84
2021/06/25 01:31:14;;;;;;;6.67;6.07;;;18.70;99.90;;;;;;4993057;28;20458;-84
2021/06/25 01:33:41;;;;;;;7.20;6.70;;;18.60;99.90;;;;;;4992988;28;20452;-88
2021/06/25 01:36:09;;;;;;;6.27;5.77;;;18.60;99.90;;;;;;4993128;28;20492;-88
2021/06/25 01:38:37;;;;;;;5.90;5.50;;;18.50;99.90;;;;;;4991873;28;20547;-85
2021/06/25 01:41:04;;;;;;;6.50;5.80;;;18.50;99.90;;;;;;4993107;28;20454;-85
2021/06/25 01:43:31;;;;;;;6.23;5.83;;;18.40;99.90;;;;;;4993113;28;20454;-85
2021/06/25 01:45:58;;;;;;;6.93;6.43;;;18.40;99.90;;;;;;4992829;28;20506;-85
2021/06/25 01:48:25;;;;;;;6.77;6.27;;;18.30;99.90;;;;;;4992154;28;20490;-85
2021/06/25 01:50:52;;;;;;;7.10;6.13;;;18.30;99.90;;;;;;4992838;28;20455;-86
2021/06/25 01:53:19;;;;;;;6.40;5.97;;;18.30;99.90;;;;;;4992846;28;20451;-85
2021/06/25 01:55:50;;;;;;;5.80;5.30;;;18.30;99.90;;;;;;4995091;28;20451;-85
2021/06/25 01:58:19;;;;;;;6.43;5.93;;;18.40;99.90;;;;;;4996627;28;20483;-86
2021/06/25 02:00:50;;;;;;;6.60;5.90;;;18.40;99.90;;;;;;4996413;28;20478;-85
2021/06/25 02:03:16;;;;;;;6.70;6.10;;;18.50;99.90;;;;;;4996318;28;21005;-87
2021/06/25 02:05:43;;;;;;;6.03;5.63;;;18.50;99.90;;;;;;4995958;28;20483;-87
2021/06/25 02:08:09;;;;;;;6.00;5.50;;;18.50;99.90;;;;;;4996244;28;20516;-87
2021/06/25 02:10:36;;;;;;;7.00;6.30;;;18.50;99.90;;;;;;4996309;28;20459;-86
2021/06/25 02:13:04;;;;;;;5.70;5.20;;;18.60;99.90;;;;;;4996121;28;20451;-86
2021/06/25 02:15:30;;;;;;;6.27;5.87;;;18.60;99.90;;;;;;4996061;28;20515;-86
2021/06/25 02:17:57;;;;;;;6.40;5.90;;;18.60;99.90;;;;;;5015253;28;20540;-88
2021/06/25 02:20:24;;;;;;;6.80;6.20;;;18.50;99.90;;;;;;5015453;28;20941;-86
2021/06/25 02:22:50;;;;;;;6.30;5.70;;;18.60;99.90;;;;;;5011909;28;20957;-86
2021/06/25 02:25:17;;;;;;;6.20;5.60;;;18.60;99.90;;;;;;4996498;28;20859;-86
2021/06/25 02:27:44;;;;;;;8.63;6.27;;;18.60;99.90;;;;;;4995734;28;21013;-86
2021/06/25 02:30:16;;;;;;;7.27;6.60;;;18.60;99.90;;;;;;4995775;28;20478;-86
2021/06/25 02:32:43;;;;;;;6.17;5.73;;;18.70;99.90;;;;;;4995799;28;20487;-86
2021/06/25 02:35:10;;;;;;;7.27;6.30;;;18.70;99.90;;;;;;4995848;28;20487;-89
2021/06/25 02:37:37;;;;;;;6.87;6.27;;;18.70;99.90;;;;;;4995989;28;20459;-89
2021/06/25 02:40:04;;;;;;;7.07;6.43;;;18.60;99.90;;;;;;4995694;28;20451;-88
2021/06/25 02:42:31;;;;;;;6.40;5.83;;;18.70;99.90;;;;;;4995549;28;20497;-89
2021/06/25 02:44:57;;;;;;;7.33;6.37;;;18.70;99.90;;;;;;4995696;28;20487;-88
2021/06/25 02:47:25;;;;;;;9.30;7.00;;;18.70;99.90;;;;;;4978155;28;20483;-88
2021/06/25 02:49:52;;;;;;;7.00;6.27;;;18.70;99.90;;;;;;4995517;28;20506;-85
2021/06/25 02:52:18;;;;;;;5.60;5.20;;;18.70;99.90;;;;;;4995402;28;20510;-85
2021/06/25 02:54:45;;;;;;;5.93;5.43;;;18.80;99.90;;;;;;4995401;28;20479;-85
2021/06/25 02:57:11;;;;;;;6.27;5.77;;;18.70;99.90;;;;;;4995627;28;20451;-86
2021/06/25 02:59:38;;;;;;;6.27;5.50;;;18.70;99.90;;;;;;4995541;28;20539;-84
2021/06/25 03:02:05;;;;;;;5.70;5.40;;;18.70;99.90;;;;;;4995287;28;20879;-84
2021/06/25 03:04:33;;;;;;;6.50;5.80;;;18.80;99.90;;;;;;4995068;28;20458;-86
2021/06/25 03:07:00;;;;;;;6.50;5.90;;;18.80;99.90;;;;;;4994403;28;20522;-86
2021/06/25 03:09:26;;;;;;;7.53;6.70;;;18.80;99.90;;;;;;4995402;28;20474;-86
2021/06/25 03:11:53;;;;;;;7.70;6.80;;;18.80;99.90;;;;;;5003055;28;20477;-86
2021/06/25 03:14:19;;;;;;;9.93;7.23;;;18.80;99.90;;;;;;5014705;28;20863;-87
2021/06/25 03:16:46;;;;;;;7.20;6.70;;;18.90;99.90;;;;;;5014212;28;20506;-86
2021/06/25 03:19:13;;;;;;;7.73;7.13;;;18.90;99.90;;;;;;5014415;28;20993;-87
2021/06/25 03:21:40;;;;;;;8.33;7.60;;;18.90;99.90;;;;;;5014424;28;20987;-87
2021/06/25 03:24:08;;;;;;;7.87;7.27;;;18.90;99.90;;;;;;5014447;28;20454;-87
2021/06/25 03:26:35;;;;;;;8.53;7.83;;;19.00;99.90;;;;;;5014205;28;20477;-88
2021/06/25 03:29:01;;;;;;;7.20;6.63;;;19.00;99.90;;;;;;5013916;28;20541;-88
2021/06/25 03:31:28;;;;;;;8.63;7.93;;;19.00;99.90;;;;;;5014097;28;20536;-88
2021/06/25 03:33:55;;;;;;;8.93;7.97;;;19.00;99.90;;;;;;5014240;28;20457;-88
2021/06/25 03:36:21;;;;;;;9.33;8.50;;;19.00;99.90;;;;;;5014275;28;20446;-88
2021/06/25 03:38:49;;;;;;;9.27;8.50;;;19.00;99.90;;;;;;5002088;28;21021;-87
2021/06/25 03:41:16;;;;;;;9.47;8.67;;;19.00;99.90;;;;;;4995687;28;20485;-87
2021/06/25 03:43:42;;;;;;;10.10;8.80;;;19.10;99.90;;;;;;5012350;28;20500;-86
2021/06/25 03:46:09;;;;;;;9.17;8.40;;;19.10;99.90;;;;;;5012345;28;20806;-86
2021/06/25 03:48:36;;;;;;;9.73;8.83;;;19.10;99.90;;;;;;5012384;28;20450;-89
2021/06/25 03:51:03;;;;;;;9.33;8.50;;;19.20;99.90;;;;;;5012475;28;20455;-84
2021/06/25 03:53:29;;;;;;;9.17;8.27;;;19.10;99.90;;;;;;5012851;28;20495;-85
2021/06/25 03:56:12;;;;;;;8.67;7.97;;;19.20;99.90;;;;;;5013045;28;20532;-86
2021/06/25 03:58:41;;;;;;;9.10;8.20;;;19.20;99.90;;;;;;5013556;28;20473;-85
2021/06/25 04:01:08;;;;;;;9.87;9.07;;;19.30;99.90;;;;;;5013863;28;20461;-88
2021/06/25 04:03:35;;;;;;;9.13;8.20;;;19.30;99.90;;;;;;5013842;28;20446;-88
2021/06/25 04:06:01;;;;;;;10.57;7.77;;;19.30;99.90;;;;;;5013747;28;20450;-87
2021/06/25 04:08:30;;;;;;;9.20;8.30;;;19.30;99.90;;;;;;5013569;28;20585;-86
2021/06/25 04:10:58;;;;;;;8.60;7.90;;;19.30;99.90;;;;;;5012960;28;20450;-91
2021/06/25 04:13:25;;;;;;;8.40;7.80;;;19.40;99.90;;;;;;4994344;28;20466;-90
2021/06/25 04:15:51;;;;;;;8.40;7.70;;;19.40;99.90;;;;;;4993927;28;20549;-90
2021/06/25 04:18:18;;;;;;;9.13;8.37;;;19.50;99.90;;;;;;4993931;28;20554;-87
2021/06/25 04:20:45;;;;;;;8.67;7.90;;;19.60;99.90;;;;;;4993693;28;20458;-87
2021/06/25 04:23:12;;;;;;;11.23;8.77;;;19.70;99.90;;;;;;4994031;28;20455;-91
2021/06/25 04:25:38;;;;;;;7.60;6.90;;;19.70;99.90;;;;;;4993685;28;20487;-89
2021/06/25 04:28:06;;;;;;;8.77;8.07;;;19.80;99.90;;;;;;4993876;28;20518;-90
2021/06/25 04:30:34;;;;;;;8.53;7.90;;;19.90;99.90;;;;;;4993911;28;20487;-91
2021/06/25 04:33:01;;;;;;;9.13;8.27;;;20.00;99.90;;;;;;4993890;28;20513;-92
2021/06/25 04:35:28;;;;;;;8.30;7.00;;;20.10;99.90;;;;;;4993794;28;20545;-92
2021/06/25 04:37:54;;;;;;;9.60;8.53;;;20.10;99.90;;;;;;4993645;28;20451;-91
2021/06/25 04:40:21;;;;;;;9.93;9.03;;;20.20;99.90;;;;;;4993644;28;20447;-91
2021/06/25 04:42:48;;;;;;;9.40;8.60;;;20.30;99.90;;;;;;4993976;28;20473;-89
2021/06/25 04:45:16;;;;;;;14.47;13.10;;;20.30;99.90;;;;;;4993579;28;20458;-85
2021/06/25 04:47:44;;;;;;;13.27;11.87;;;20.40;99.90;;;;;;4993472;28;20525;-86
2021/06/25 04:50:12;;;;;;;11.70;10.60;;;20.40;99.90;;;;;;4993686;28;20554;-85
2021/06/25 04:52:38;;;;;;;11.37;10.27;;;20.50;99.90;;;;;;4993399;28;20479;-85
2021/06/25 04:55:07;;;;;;;9.90;9.00;;;20.50;99.90;;;;;;4994297;28;20509;-85
2021/06/25 04:57:34;;;;;;;9.93;9.00;;;20.50;99.90;;;;;;4994061;28;20459;-85
2021/06/25 05:00:01;;;;;;;10.03;9.23;;;20.60;99.90;;;;;;4994259;28;20482;-85
2021/06/25 05:02:28;;;;;;;10.50;9.40;;;20.60;99.90;;;;;;4994028;28;20520;-86
2021/06/25 05:04:55;;;;;;;10.23;9.20;;;20.70;99.90;;;;;;4994072;28;20795;-89
2021/06/25 05:07:22;;;;;;;11.03;9.97;;;20.70;99.90;;;;;;4993456;28;20510;-85
2021/06/25 05:09:48;;;;;;;10.20;9.10;;;20.80;99.90;;;;;;4993661;28;20447;-86
2021/06/25 05:12:15;;;;;;;10.50;9.60;;;20.80;99.90;;;;;;4993966;28;20447;-85
2021/06/25 05:14:41;;;;;;;11.40;9.43;;;20.90;99.90;;;;;;4993827;28;20446;-85
2021/06/25 05:17:08;;;;;;;11.43;10.10;;;20.90;99.90;;;;;;5004022;28;21009;-85
2021/06/25 05:19:36;;;;;;;9.97;9.17;;;20.90;99.90;;;;;;5012749;28;20462;-85
2021/06/25 05:22:02;;;;;;;9.40;8.60;;;21.00;99.90;;;;;;5013165;28;20492;-85
2021/06/25 05:24:29;;;;;;;10.13;9.23;;;21.00;99.90;;;;;;5013045;28;21004;-85
2021/06/25 05:26:55;;;;;;;8.00;7.30;;;21.00;99.90;;;;;;5012851;28;20472;-85
2021/06/25 05:29:22;;;;;;;9.93;9.00;;;21.10;99.90;;;;;;5012767;28;20457;-84
2021/06/25 05:31:49;;;;;;;9.03;8.30;;;21.10;99.90;;;;;;5016457;28;20454;-88
2021/06/25 05:34:15;;;;;;;12.73;11.47;;;21.10;99.90;;;;;;5016844;28;20482;-89
2021/06/25 05:36:43;;;;;;;12.63;11.43;;;21.10;99.90;;;;;;5015888;28;20482;-89
2021/06/25 05:39:10;;;;;;;11.73;9.07;;;21.20;99.90;;;;;;5004067;28;20508;-88
2021/06/25 05:41:36;;;;;;;12.03;10.27;;;21.30;99.90;;;;;;5007055;28;20846;-86
2021/06/25 05:44:03;;;;;;;13.13;10.70;;;21.40;99.90;;;;;;5007075;28;20477;-89
2021/06/25 05:46:30;;;;;;;11.90;10.70;;;21.50;99.90;;;;;;5008217;28;20490;-95
2021/06/25 05:48:56;;;;;;;10.40;9.57;;;21.50;99.90;;;;;;5000383;28;20478;-95
2021/06/25 05:51:23;;;;;;;12.00;10.90;;;21.60;99.90;;;;;;5007444;28;20945;-96
2021/06/25 05:53:51;;;;;;;11.33;9.93;;;21.70;99.90;;;;;;5002381;28;20455;-90
2021/06/25 05:56:20;;;;;;;13.20;10.20;;;21.70;99.90;;;;;;5000219;28;20861;-91
2021/06/25 05:58:47;;;;;;;10.53;9.70;;;21.80;99.90;;;;;;4997297;28;20509;-91
2021/06/25 06:01:13;;;;;;;9.50;8.70;;;21.90;99.90;;;;;;4998346;28;20455;-88
2021/06/25 06:03:40;;;;;;;12.43;11.23;;;21.90;99.90;;;;;;5016313;28;20508;-90
2021/06/25 06:06:07;;;;;;;12.00;9.43;;;21.90;99.90;;;;;;5015953;28;20501;-85
2021/06/25 06:08:36;;;;;;;10.57;9.57;;;21.90;99.90;;;;;;5015949;28;20486;-85
2021/06/25 06:11:04;;;;;;;10.30;9.40;;;22.00;99.90;;;;;;5014683;28;20508;-85
2021/06/25 06:13:30;;;;;;;8.87;8.13;;;22.10;99.90;;;;;;5001983;28;20451;-85
2021/06/25 06:15:57;;;;;;;8.70;7.90;;;22.10;99.90;;;;;;5006252;28;20540;-85
2021/06/25 06:18:27;;;;;;;10.10;9.20;;;22.30;99.90;;;;;;5012995;28;20458;-86
2021/06/25 06:20:54;;;;;;;8.87;8.23;;;22.40;99.90;;;;;;5015872;28;20554;-89
2021/06/25 06:31:36;;;;;;;11.20;10.10;;;22.60;99.90;;;;;;5015822;28;20449;-87
2021/06/25 06:34:08;;;;;;;8.40;7.70;;;22.70;99.90;;;;;;5015856;28;20488;-90
2021/06/25 06:36:40;;;;;;;11.17;9.83;;;22.80;99.90;;;;;;5012058;28;20451;-87
2021/06/25 06:39:08;;;;;;;9.30;8.20;;;22.90;99.90;;;;;;4995545;28;20466;-88
2021/06/25 06:41:37;;;;;;;9.63;8.80;;;22.90;99.90;;;;;;4995949;28;20501;-94
2021/06/25 06:44:05;;;;;;;9.43;8.50;;;22.90;99.90;;;;;;5016043;28;20482;-91
2021/06/25 06:46:32;;;;;;;9.20;8.50;;;22.90;99.90;;;;;;5013767;28;20454;-91
2021/06/25 06:48:59;;;;;;;9.27;8.57;;;22.90;99.90;;;;;;4997321;28;20486;-93
2021/06/25 06:51:26;;;;;;;9.47;8.63;;;22.90;99.90;;;;;;4996491;28;20451;-93
2021/06/25 06:53:56;;;;;;;10.30;9.00;;;22.90;99.90;;;;;;5009722;28;20488;-88
2021/06/25 06:56:23;;;;;;;9.20;8.10;;;22.80;99.90;;;;;;5015815;28;20853;-89
2021/06/25 06:58:53;;;;;;;8.80;7.87;;;23.00;99.90;;;;;;5015310;28;20504;-88
2021/06/25 07:01:20;;;;;;;8.87;8.07;;;23.10;99.90;;;;;;5015249;28;21012;-78
2021/06/25 07:03:48;;;;;;;9.07;8.07;;;23.30;99.90;;;;;;5014760;28;20481;-79
2021/06/25 07:06:15;;;;;;;9.30;8.40;;;23.40;99.90;;;;;;5014947;28;20579;-78
2021/06/25 07:08:41;;;;;;;10.97;8.87;;;23.50;99.90;;;;;;5014770;28;20961;-79
2021/06/25 07:11:08;;;;;;;11.27;9.50;;;23.60;99.90;;;;;;5012815;28;20485;-79
2021/06/25 07:13:35;;;;;;;8.13;7.37;;;23.60;99.90;;;;;;4995145;28;20455;-80
2021/06/25 07:16:03;;;;;;;10.37;7.63;;;23.70;99.90;;;;;;4994980;28;20482;-80
2021/06/25 07:18:29;;;;;;;8.27;7.63;;;23.70;99.90;;;;;;4994841;28;20708;-75
2021/06/25 07:20:56;;;;;;;8.33;7.40;;;23.70;99.90;;;;;;4991578;28;20988;-75
2021/06/25 07:23:22;;;;;;;8.30;7.13;;;23.80;99.90;;;;;;4984917;28;20483;-76
2021/06/25 07:25:49;;;;;;;10.90;8.13;;;23.80;99.90;;;;;;4978798;28;20474;-76
2021/06/25 07:28:16;;;;;;;8.43;7.63;;;23.90;99.90;;;;;;4990857;28;20891;-75
2021/06/25 07:30:45;;;;;;;8.47;7.40;;;24.00;99.90;;;;;;4981448;28;20969;-76
2021/06/25 07:33:13;;;;;;;9.33;8.37;;;24.10;99.90;;;;;;4983331;28;20559;-77
2021/06/25 07:35:40;;;;;;;8.57;7.87;;;24.10;99.90;;;;;;4989113;28;20494;-76
2021/06/25 07:38:06;;;;;;;8.07;7.47;;;24.10;99.90;;;;;;4976445;28;20455;-76
2021/06/25 07:40:33;;;;;;;9.00;7.97;;;24.10;99.90;;;;;;4979965;28;21009;-76
2021/06/25 07:42:59;;;;;;;7.27;6.67;;;24.10;99.90;;;;;;4984948;28;20994;-76
2021/06/25 07:45:26;;;;;;;8.27;7.47;;;24.00;99.90;;;;;;4986998;28;20482;-76
2021/06/25 07:47:53;;;;;;;7.33;6.60;;;24.00;99.90;;;;;;4977202;28;20578;-77
2021/06/25 07:50:20;;;;;;;11.83;8.30;;;24.00;99.90;;;;;;4990519;28;20490;-76
2021/06/25 07:52:47;;;;;;;9.37;7.70;;;24.00;99.90;;;;;;4976918;28;20479;-79
2021/06/25 07:55:15;;;;;;;9.03;7.90;;;24.10;99.90;;;;;;4985327;28;20972;-79
2021/06/25 07:57:42;;;;;;;8.73;7.47;;;24.20;99.90;;;;;;4979106;28;20448;-77
2021/06/25 08:00:10;;;;;;;8.60;7.80;;;24.40;99.90;;;;;;4990213;28;20447;-76
2021/06/25 08:02:37;;;;;;;8.93;7.13;;;24.50;99.90;;;;;;4978995;28;20443;-77
2021/06/25 08:05:05;;;;;;;7.87;7.27;;;24.60;99.90;;;;;;4984019;28;20935;-75
2021/06/25 08:07:32;;;;;;;7.93;7.23;;;24.70;99.90;;;;;;4987410;28;20439;-75
2021/06/25 08:09:59;;;;;;;10.50;7.47;;;24.80;99.90;;;;;;4977500;28;20624;-75
2021/06/25 08:12:26;;;;;;;8.10;6.53;;;24.90;99.90;;;;;;4993462;28;20537;-75
2021/06/25 08:14:54;;;;;;;11.13;6.70;;;24.90;99.90;;;;;;4985664;28;20450;-77
2021/06/25 08:17:21;;;;;;;8.40;7.07;;;24.70;99.90;;;;;;4994524;28;20483;-77
2021/06/25 08:19:48;;;;;;;8.57;5.70;;;24.60;99.90;;;;;;5001676;28;20962;-76
2021/06/25 08:22:14;;;;;;;6.43;5.70;;;24.50;99.90;;;;;;5002538;28;20474;-76
2021/06/25 08:24:42;;;;;;;6.60;5.20;;;24.40;99.90;;;;;;5003913;28;20474;-76
2021/06/25 08:27:08;;;;;;;8.43;5.60;;;24.20;99.90;;;;;;4994237;28;20864;-76
2021/06/25 08:29:35;;;;;;;6.93;5.40;;;24.10;99.90;;;;;;4993524;28;21033;-76
2021/06/25 08:32:02;;;;;;;5.80;5.30;;;23.80;99.90;;;;;;5000797;28;20546;-77
2021/06/25 08:34:28;;;;;;;5.93;5.17;;;23.60;99.90;;;;;;5001872;28;20493;-77
2021/06/25 08:36:55;;;;;;;5.87;5.33;;;23.40;99.90;;;;;;5007953;28;20451;-77
2021/06/25 08:39:25;;;;;;;5.50;4.90;;;23.30;99.90;;;;;;4996812;28;20459;-76
2021/06/25 08:41:54;;;;;;;6.30;5.20;;;23.30;99.90;;;;;;5000449;28;20455;-76
2021/06/25 08:44:20;;;;;;;6.53;5.93;;;23.50;99.90;;;;;;5004092;28;20458;-76
2021/06/25 08:46:48;;;;;;;6.07;4.80;;;23.60;99.90;;;;;;5001900;28;20527;-76
2021/06/25 08:49:19;;;;;;;5.30;4.73;;;24.10;99.90;;;;;;4996857;28;20516;-77
2021/06/25 08:51:48;;;;;;;7.10;6.40;;;24.40;99.90;;;;;;5000190;28;21011;-77
2021/06/25 08:54:15;;;;;;;8.77;6.33;;;24.70;99.90;;;;;;5002199;28;20464;-77
2021/06/25 08:56:41;;;;;;;6.63;5.97;;;25.10;99.90;;;;;;5002782;28;20875;-77
2021/06/25 08:59:10;;;;;;;5.60;5.03;;;25.40;99.90;;;;;;5002111;28;20510;-76
2021/06/25 09:01:37;;;;;;;7.17;6.53;;;25.80;99.90;;;;;;5001406;28;20482;-76
2021/06/25 09:04:05;;;;;;;6.70;6.00;;;26.00;99.90;;;;;;5005175;28;20541;-77
2021/06/25 09:06:33;;;;;;;5.67;5.27;;;26.10;99.90;;;;;;5012723;28;20457;-78
2021/06/25 09:09:11;;;;;;;6.53;5.87;;;26.10;99.90;;;;;;5014510;28;20478;-77
2021/06/25 09:11:40;;;;;;;4.73;4.33;;;26.00;99.90;;;;;;5009520;28;20447;-77
2021/06/25 09:14:08;;;;;;;6.40;5.80;;;25.90;99.90;;;;;;4998762;28;20780;-78
2021/06/25 09:16:36;;;;;;;7.23;6.50;;;25.90;99.90;;;;;;4996476;28;20506;-77
2021/06/25 09:19:05;;;;;;;10.10;5.73;;;26.00;99.90;;;;;;4985703;28;20958;-78
2021/06/25 09:21:33;;;;;;;6.70;6.10;;;26.30;99.90;;;;;;4978137;28;20475;-78
2021/06/25 09:24:16;;;;;;;4.90;4.50;;;26.60;99.90;;;;;;4979255;28;20444;-77
2021/06/25 09:26:42;;;;;;;5.70;5.20;;;27.00;99.90;;;;;;4983966;28;20784;-77
2021/06/25 09:29:14;;;;;;;5.90;5.30;;;27.40;99.90;;;;;;4996461;28;20529;-77
2021/06/25 09:31:41;;;;;;;7.23;4.90;;;27.60;99.90;;;;;;4996309;28;20478;-78
2021/06/25 09:34:10;;;;;;;5.00;4.60;;;27.90;99.90;;;;;;4995905;28;20479;-78
2021/06/25 09:36:38;;;;;;;5.50;5.00;;;28.10;99.90;;;;;;4994925;28;20966;-78
2021/06/25 09:39:08;;;;;;;6.83;5.97;;;28.30;99.90;;;;;;4995132;28;20455;-77
2021/06/25 09:41:36;;;;;;;4.97;4.57;;;28.40;99.90;;;;;;4994886;28;21009;-77
2021/06/25 09:44:05;;;;;;;5.53;5.00;;;28.40;99.90;;;;;;4980658;28;20454;-77
2021/06/25 09:46:34;;;;;;;5.20;4.70;;;28.20;99.90;;;;;;4978590;28;20954;-77
2021/06/25 09:49:02;;;;;;;5.83;4.23;;;28.10;99.90;;;;;;4986013;28;20961;-77
2021/06/25 09:51:29;;;;;;;5.17;4.67;;;27.90;99.90;;;;;;4990827;28;20526;-77
2021/06/25 09:54:13;;;;;;;6.27;5.73;;;27.50;99.90;;;;;;4986345;28;20481;-77
2021/06/25 09:56:46;;;;;;;5.77;5.37;;;27.20;99.90;;;;;;4986131;28;20517;-78
2021/06/25 09:59:30;;;;;;;6.17;5.57;;;26.70;99.90;;;;;;4985765;28;20455;-77
2021/06/25 10:02:19;;;;;;;6.63;5.50;;;26.50;99.90;;;;;;4985923;28;20994;-77
2021/06/25 10:04:49;;;;;;;5.80;5.40;;;26.40;99.90;;;;;;4988266;28;20863;-77
2021/06/25 10:07:17;;;;;;;7.67;4.70;;;26.40;99.90;;;;;;4989117;28;20443;-78
2021/06/25 10:09:45;;;;;;;6.13;5.20;;;26.70;99.90;;;;;;4988172;28;20511;-77
2021/06/25 10:12:13;;;;;;;5.67;4.80;;;26.80;99.90;;;;;;4983632;28;20564;-77
2021/06/25 10:14:42;;;;;;;4.70;4.23;;;27.00;99.90;;;;;;4986661;28;20476;-77
2021/06/25 10:17:09;;;;;;;5.90;5.37;;;27.20;99.90;;;;;;4994555;28;20562;-78
2021/06/25 10:19:37;;;;;;;6.77;6.07;;;27.30;99.90;;;;;;5005148;28;20459;-78
2021/06/25 10:22:08;;;;;;;6.50;5.70;;;27.30;99.90;;;;;;5004524;28;20525;-77
2021/06/25 10:24:35;;;;;;;7.00;6.40;;;27.20;99.90;;;;;;5006090;28;20478;-77
2021/06/25 10:27:03;;;;;;;5.73;5.20;;;27.30;99.90;;;;;;5008303;28;20450;-75
2021/06/25 10:29:33;;;;;;;6.93;6.17;;;27.40;99.90;;;;;;5015096;28;20552;-76
2021/06/25 10:32:01;;;;;;;5.30;4.80;;;27.40;99.90;;;;;;4998635;28;20485;-77
2021/06/25 10:34:27;;;;;;;5.73;5.30;;;27.50;99.90;;;;;;5006764;28;20990;-77
2021/06/25 10:36:54;;;;;;;4.77;4.30;;;27.70;99.90;;;;;;5004614;28;20520;-77
2021/06/25 10:39:22;;;;;;;5.17;4.77;;;27.90;99.90;;;;;;5006579;28;20470;-77
2021/06/25 10:41:51;;;;;;;4.57;4.27;;;28.00;99.90;;;;;;5002539;28;20492;-77
2021/06/25 10:44:35;;;;;;;4.57;4.20;;;28.30;99.90;;;;;;5002523;28;20482;-77
2021/06/25 10:47:14;;;;;;;4.37;4.07;;;28.60;99.90;;;;;;5005429;28;20489;-77
2021/06/25 10:50:30;;;;;;;5.07;3.43;;;28.80;99.90;;;;;;5004846;28;20569;-78
2021/06/25 10:53:17;;;;;;;7.27;4.20;;;29.00;99.90;;;;;;5005374;28;20941;-77
2021/06/25 10:56:07;;;;;;;6.90;4.13;;;28.90;99.90;;;;;;4999380;28;20987;-77
2021/06/25 10:58:35;;;;;;;5.87;5.30;;;28.90;99.90;;;;;;5006256;28;20825;-77
2021/06/25 11:01:02;;;;;;;5.27;4.87;;;28.80;99.90;;;;;;5003450;28;20451;-77
2021/06/25 11:03:41;;;;;;;6.63;5.70;;;28.70;99.80;;;;;;5007479;28;20442;-77
2021/06/25 11:06:10;;;;;;;6.83;4.37;;;28.60;99.40;;;;;;4999449;28;20466;-77
2021/06/25 11:09:00;;;;;;;4.87;4.47;;;28.70;99.90;;;;;;5004052;28;20453;-77
2021/06/25 11:11:29;;;;;;;4.33;3.93;;;28.70;99.90;;;;;;5002937;28;20954;-77
2021/06/25 11:13:55;;;;;;;6.53;4.67;;;28.60;99.90;;;;;;5009537;28;21334;-77
2021/06/25 11:16:22;;;;;;;5.27;4.93;;;28.40;99.90;;;;;;4994986;28;20466;-77
2021/06/25 11:18:49;;;;;;;4.47;4.17;;;28.10;98.80;;;;;;4985978;28;20856;-78
2021/06/25 11:21:15;;;;;;;5.77;5.37;;;27.90;99.00;;;;;;4986476;28;20483;-77
2021/06/25 11:23:44;;;;;;;8.40;4.90;;;27.50;99.40;;;;;;4986531;28;20478;-77
2021/06/25 11:26:23;;;;;;;5.00;4.70;;;27.30;99.90;;;;;;4992352;28;20447;-77
2021/06/25 11:28:52;;;;;;;5.17;4.87;;;27.00;99.90;;;;;;4992966;28;20509;-78
2021/06/25 11:31:24;;;;;;;4.67;4.37;;;27.00;99.90;;;;;;4993832;28;20478;-78
2021/06/25 11:33:56;;;;;;;5.40;4.90;;;26.90;99.90;;;;;;4993608;28;20482;-78
2021/06/25 11:36:37;;;;;;;6.63;5.70;;;26.80;99.90;;;;;;4981929;28;20454;-78
2021/06/25 11:39:24;;;;;;;5.97;5.43;;;26.80;99.90;;;;;;4991796;28;20513;-78
2021/06/25 11:41:54;;;;;;;5.73;5.23;;;26.70;99.90;;;;;;4976753;28;21005;-78
2021/06/25 11:44:24;;;;;;;5.63;5.13;;;26.60;99.90;;;;;;4993002;28;20451;-78
2021/06/25 11:46:55;;;;;;;5.00;4.57;;;26.50;99.90;;;;;;4993476;28;20451;-77
2021/06/25 11:49:23;;;;;;;4.30;4.00;;;26.50;99.90;;;;;;4993262;28;20493;-76
2021/06/25 11:51:49;;;;;;;6.97;4.13;;;26.60;99.90;;;;;;4981934;28;20459;-76
2021/06/25 11:54:20;;;;;;;5.93;5.40;;;26.90;99.90;;;;;;4985142;28;20451;-76
2021/06/25 11:56:48;;;;;;;4.13;3.90;;;27.10;99.90;;;;;;4983482;28;20463;-76
2021/06/25 11:59:15;;;;;;;4.57;4.27;;;27.60;99.90;;;;;;4982639;28;20506;-77
2021/06/25 12:01:54;;;;;;;7.10;4.27;;;28.00;99.90;;;;;;4983099;28;20475;-77
2021/06/25 12:05:08;;;;;;;10.83;6.07;;;28.40;99.60;;;;;;4985379;28;20465;-76
2021/06/25 12:07:35;;;;;;;3.37;3.10;;;28.70;98.90;;;;;;4932673;29;20501;-78
2021/06/25 12:10:03;;;;;;;3.30;3.10;;;29.00;96.60;;;;;;4975553;28;20502;-78
2021/06/25 12:12:31;;;;;;;4.70;3.10;;;29.00;96.60;;;;;;4975884;28;20470;-78
2021/06/25 12:14:59;;;;;;;4.37;4.03;;;29.00;96.00;;;;;;4984150;28;21002;-79
2021/06/25 12:17:41;;;;;;;4.47;4.07;;;28.80;95.50;;;;;;4984814;28;21073;-78
2021/06/25 12:20:11;;;;;;;4.53;3.83;;;28.60;95.30;;;;;;4988935;28;20455;-78
2021/06/25 12:22:53;;;;;;;3.77;3.47;;;28.50;95.50;;;;;;4976758;28;20448;-80
2021/06/25 12:25:32;;;;;;;3.83;3.53;;;28.40;95.70;;;;;;4979275;28;20475;-79
2021/06/25 12:27:59;;;;;;;3.70;3.50;;;28.10;95.60;;;;;;4987481;28;20807;-79
2021/06/25 12:30:26;;;;;;;4.93;3.37;;;28.00;96.00;;;;;;4988874;28;20482;-80
2021/06/25 12:33:01;;;;;;;3.90;3.50;;;28.00;95.90;;;;;;4989386;28;20501;-94
2021/06/25 12:35:32;;;;;;;3.87;3.47;;;28.00;95.70;;;;;;4988031;28;20447;-83
2021/06/25 12:37:59;;;;;;;4.13;3.80;;;28.20;95.70;;;;;;4987472;28;20950;-83
2021/06/25 12:40:47;;;;;;;7.07;4.00;;;28.30;96.20;;;;;;4987267;28;20452;-84
2021/06/25 12:43:16;;;;;;;6.47;4.03;;;28.30;96.50;;;;;;4984776;28;20458;-83
2021/06/25 12:45:45;;;;;;;4.50;4.03;;;28.10;95.70;;;;;;4978936;28;20487;-93
2021/06/25 12:48:17;;;;;;;3.50;3.30;;;27.40;95.80;;;;;;4977203;28;20888;-80
2021/06/25 12:50:44;;;;;;;4.43;3.40;;;27.20;96.60;;;;;;4984480;28;20593;-84
2021/06/25 12:53:13;;;;;;;3.40;3.20;;;27.20;96.20;;;;;;4989478;28;20450;-84
2021/06/25 12:55:39;;;;;;;4.10;3.80;;;27.10;96.40;;;;;;4977885;28;20559;-84
2021/06/25 12:58:07;;;;;;;3.90;3.60;;;27.10;96.40;;;;;;4987844;28;20452;-85
2021/06/25 13:00:34;;;;;;;3.90;3.07;;;27.20;95.20;;;;;;4986325;28;20506;-82